Time;durP1;ratioP1;P1;durP2;ratioP2;P2;SDS_P1;SDS_P2;PMS_P1;PMS_P2;Temp;Humidity;BMP_temperature;BMP_pressure;BME280_temperature;BME280_humidity;BME280_pressure;Samples;Min_cycle;Max_cycle;Signal;HPM_P1;HPM_P2
2021/01/11 00:01:18;;;;;;;33.37;11.53;;;;;;;;;;5093959;28;20592;-74
2021/01/11 00:04:24;;;;;;;31.47;11.70;;;;;;;;;;5111932;28;20853;-74
2021/01/11 00:07:29;;;;;;;30.47;10.77;;;;;;;;;;5080380;28;20220;-74
2021/01/11 00:10:36;;;;;;;29.83;12.17;;;;;;;;;;5099277;28;20212;-76
2021/01/11 00:13:42;;;;;;;31.60;11.67;;;;;;;;;;5080428;28;20206;-76
2021/01/11 00:16:46;;;;;;;36.20;12.07;;;;;;;;;;5079720;28;20217;-76
2021/01/11 00:19:52;;;;;;;38.23;12.23;;;;;;;;;;5080072;28;20693;-75
2021/01/11 00:22:56;;;;;;;32.00;11.67;;;;;;;;;;5095020;28;20240;-76
2021/01/11 00:26:01;;;;;;;34.53;11.67;;;;;;;;;;5087582;28;20193;-76
2021/01/11 00:29:05;;;;;;;31.67;11.23;;;;;;;;;;5082821;28;20193;-76
2021/01/11 00:32:10;;;;;;;38.93;12.73;;;;;;;;;;5092757;28;20305;-76
2021/01/11 00:35:15;;;;;;;32.83;10.93;;;;;;;;;;5080011;28;20248;-76
2021/01/11 00:38:20;;;;;;;33.40;12.23;;;;;;;;;;5080674;28;20217;-76
2021/01/11 00:41:24;;;;;;;32.00;12.47;;;;;;;;;;5095718;28;20602;-76
2021/01/11 00:44:29;;;;;;;28.27;10.90;;;;;;;;;;5087658;28;20617;-74
2021/01/11 00:47:37;;;;;;;36.03;11.53;;;;;;;;;;5079948;28;20673;-75
2021/01/11 00:50:43;;;;;;;35.57;12.07;;;;;;;;;;5091466;28;20204;-75
2021/01/11 00:53:48;;;;;;;38.23;12.47;;;;;;;;;;5082141;28;20209;-76
2021/01/11 00:56:54;;;;;;;36.77;12.00;;;;;;;;;;5087460;28;20561;-74
2021/01/11 01:00:20;;;;;;;36.03;12.83;;;;;;;;;;5093093;28;20242;-74
2021/01/11 01:03:31;;;;;;;32.63;11.47;;;;;;;;;;5090157;28;20197;-74
2021/01/11 01:06:37;;;;;;;32.87;11.40;;;;;;;;;;5089536;28;20711;-74
2021/01/11 01:09:41;;;;;;;32.27;11.37;;;;;;;;;;5089729;28;20201;-74
2021/01/11 01:12:46;;;;;;;29.00;10.37;;;;;;;;;;5098352;28;20229;-74
2021/01/11 01:15:51;;;;;;;33.73;11.53;;;;;;;;;;5089700;28;20213;-74
2021/01/11 01:18:56;;;;;;;28.57;10.50;;;;;;;;;;5100914;28;20208;-73
2021/01/11 01:22:01;;;;;;;32.53;10.57;;;;;;;;;;5105784;28;20229;-73
2021/01/11 01:25:07;;;;;;;30.23;10.73;;;;;;;;;;5107630;28;20224;-73
2021/01/11 01:28:11;;;;;;;30.43;10.97;;;;;;;;;;5093817;28;20689;-74
2021/01/11 01:31:16;;;;;;;28.57;10.70;;;;;;;;;;5084270;28;20217;-74
2021/01/11 01:34:21;;;;;;;30.70;10.60;;;;;;;;;;5090693;28;20612;-73
2021/01/11 01:37:33;;;;;;;31.10;10.57;;;;;;;;;;5103650;28;20688;-74
2021/01/11 01:40:38;;;;;;;34.53;11.53;;;;;;;;;;5089904;28;20285;-74
2021/01/11 01:43:43;;;;;;;31.87;9.80;;;;;;;;;;5088502;28;20239;-73
2021/01/11 01:46:48;;;;;;;30.40;10.03;;;;;;;;;;5083144;28;20220;-76
2021/01/11 01:49:52;;;;;;;31.43;10.63;;;;;;;;;;5102583;28;20227;-74
2021/01/11 01:52:58;;;;;;;31.40;11.13;;;;;;;;;;5102196;28;20225;-74
2021/01/11 01:56:03;;;;;;;27.30;9.67;;;;;;;;;;5093325;28;20197;-74
2021/01/11 01:59:08;;;;;;;28.53;10.33;;;;;;;;;;5082427;28;20201;-74
2021/01/11 02:02:14;;;;;;;32.83;10.30;;;;;;;;;;5083142;28;20233;-74
2021/01/11 02:05:18;;;;;;;35.60;11.93;;;;;;;;;;5098430;28;20573;-73
2021/01/11 02:08:26;;;;;;;32.70;11.77;;;;;;;;;;5082083;28;20684;-74
2021/01/11 02:11:32;;;;;;;27.87;10.67;;;;;;;;;;5083444;28;20214;-74
2021/01/11 02:14:41;;;;;;;32.47;10.90;;;;;;;;;;5103378;28;20267;-74
2021/01/11 02:17:48;;;;;;;32.80;11.17;;;;;;;;;;5103116;28;20213;-74
2021/01/11 02:21:05;;;;;;;32.27;11.43;;;;;;;;;;5081921;28;20709;-74
2021/01/11 02:24:28;;;;;;;28.90;10.83;;;;;;;;;;5083037;28;20209;-74
2021/01/11 02:27:39;;;;;;;30.43;10.83;;;;;;;;;;5092846;28;20193;-74
2021/01/11 02:30:47;;;;;;;31.43;10.70;;;;;;;;;;5086861;28;20297;-74
2021/01/11 02:33:52;;;;;;;31.27;10.97;;;;;;;;;;5095960;28;20264;-75
2021/01/11 02:36:57;;;;;;;28.33;10.50;;;;;;;;;;5091563;28;20202;-75
2021/01/11 02:40:02;;;;;;;31.07;10.53;;;;;;;;;;5099023;28;20281;-75
2021/01/11 02:43:06;;;;;;;31.43;11.23;;;;;;;;;;5084828;28;20232;-75
2021/01/11 02:46:12;;;;;;;32.93;10.77;;;;;;;;;;5092616;28;20185;-75
2021/01/11 02:49:21;;;;;;;27.53;9.73;;;;;;;;;;5085384;28;20277;-75
2021/01/11 02:52:34;;;;;;;32.50;10.77;;;;;;;;;;5089362;28;20228;-74
2021/01/11 02:55:48;;;;;;;30.20;11.03;;;;;;;;;;5119531;28;20209;-75
2021/01/11 02:59:01;;;;;;;32.87;11.10;;;;;;;;;;5105527;28;20213;-75
2021/01/11 03:02:09;;;;;;;33.57;11.10;;;;;;;;;;5102552;28;20316;-75
2021/01/11 03:05:13;;;;;;;36.90;12.27;;;;;;;;;;5094069;28;20271;-75
2021/01/11 03:08:23;;;;;;;34.53;11.67;;;;;;;;;;5096007;28;20197;-76
2021/01/11 03:11:28;;;;;;;36.23;11.10;;;;;;;;;;5089416;28;20290;-76
2021/01/11 03:14:33;;;;;;;25.07;9.23;;;;;;;;;;5096088;28;20197;-76
2021/01/11 03:17:38;;;;;;;34.90;11.97;;;;;;;;;;5112761;28;20668;-75
2021/01/11 03:20:44;;;;;;;22.67;7.43;;;;;;;;;;5084097;28;20631;-76
2021/01/11 03:23:49;;;;;;;33.20;10.43;;;;;;;;;;5089929;28;20236;-75
2021/01/11 03:26:53;;;;;;;32.70;11.00;;;;;;;;;;5088687;28;20746;-75
2021/01/11 03:29:58;;;;;;;34.63;11.10;;;;;;;;;;5093901;28;20978;-76
2021/01/11 03:33:04;;;;;;;34.57;10.53;;;;;;;;;;5103100;28;20200;-75
2021/01/11 03:36:09;;;;;;;27.97;10.33;;;;;;;;;;5099774;28;20200;-75
2021/01/11 03:39:14;;;;;;;27.40;10.63;;;;;;;;;;5083490;28;20209;-75
2021/01/11 03:42:19;;;;;;;31.83;10.50;;;;;;;;;;5110604;28;20228;-76
2021/01/11 03:45:24;;;;;;;28.00;9.67;;;;;;;;;;5085064;28;20209;-76
2021/01/11 03:48:30;;;;;;;30.83;10.57;;;;;;;;;;5091580;28;20259;-75
2021/01/11 03:51:34;;;;;;;31.87;10.37;;;;;;;;;;5081243;28;20736;-75
2021/01/11 03:54:39;;;;;;;31.73;11.53;;;;;;;;;;5103137;28;20228;-75
2021/01/11 03:57:44;;;;;;;34.00;9.87;;;;;;;;;;5118596;28;20265;-75
2021/01/11 04:00:49;;;;;;;33.13;10.73;;;;;;;;;;5104253;28;20243;-75
2021/01/11 04:03:55;;;;;;;31.20;10.53;;;;;;;;;;5088833;28;20213;-75
2021/01/11 04:07:00;;;;;;;25.67;9.23;;;;;;;;;;5088871;28;20226;-75
2021/01/11 04:10:05;;;;;;;25.20;9.63;;;;;;;;;;5082411;28;20335;-75
2021/01/11 04:13:10;;;;;;;33.07;10.50;;;;;;;;;;5082752;28;20227;-75
2021/01/11 04:16:15;;;;;;;30.37;10.07;;;;;;;;;;5092907;28;20299;-75
2021/01/11 04:19:20;;;;;;;29.97;10.30;;;;;;;;;;5097037;28;20209;-75
2021/01/11 04:22:25;;;;;;;33.20;11.00;;;;;;;;;;5091002;28;20216;-75
2021/01/11 04:25:30;;;;;;;33.70;10.77;;;;;;;;;;5095604;28;20576;-75
2021/01/11 04:28:34;;;;;;;32.43;11.23;;;;;;;;;;5098281;28;20220;-75
2021/01/11 04:31:39;;;;;;;30.53;10.70;;;;;;;;;;5089245;28;20766;-76
2021/01/11 04:34:45;;;;;;;30.33;10.77;;;;;;;;;;5098851;28;20229;-75
2021/01/11 04:37:50;;;;;;;31.97;10.83;;;;;;;;;;5095983;28;20197;-75
2021/01/11 04:41:00;;;;;;;34.30;11.83;;;;;;;;;;5099647;28;20233;-75
2021/01/11 04:44:08;;;;;;;31.37;10.93;;;;;;;;;;5082664;28;20587;-75
2021/01/11 04:47:12;;;;;;;32.70;10.93;;;;;;;;;;5079909;28;20284;-75
2021/01/11 04:50:18;;;;;;;27.17;9.70;;;;;;;;;;5080243;28;20198;-75
2021/01/11 04:53:24;;;;;;;28.77;10.90;;;;;;;;;;5092119;28;20256;-75
2021/01/11 04:56:30;;;;;;;33.83;11.70;;;;;;;;;;5088386;28;20286;-75
2021/01/11 04:59:35;;;;;;;30.50;10.07;;;;;;;;;;5079654;28;20194;-75
2021/01/11 05:02:43;;;;;;;31.87;10.90;;;;;;;;;;5083625;28;20267;-75
2021/01/11 05:05:48;;;;;;;48.10;15.13;;;;;;;;;;5115823;28;20579;-75
2021/01/11 05:08:53;;;;;;;28.93;8.60;;;;;;;;;;5083150;28;20703;-75
2021/01/11 05:11:58;;;;;;;33.13;10.20;;;;;;;;;;5103565;28;20216;-75
2021/01/11 05:15:18;;;;;;;30.10;10.87;;;;;;;;;;5091975;28;20297;-75
2021/01/11 05:18:23;;;;;;;32.90;10.53;;;;;;;;;;5091998;28;20197;-75
2021/01/11 05:21:41;;;;;;;31.53;11.17;;;;;;;;;;5091887;28;20233;-75
2021/01/11 05:24:46;;;;;;;27.77;10.03;;;;;;;;;;5099485;28;20592;-75
2021/01/11 05:28:12;;;;;;;33.53;10.30;;;;;;;;;;5088958;28;20275;-75
2021/01/11 05:31:17;;;;;;;28.40;9.30;;;;;;;;;;5104916;28;20228;-75
2021/01/11 05:34:22;;;;;;;30.57;10.40;;;;;;;;;;5105949;28;20233;-75
2021/01/11 05:37:32;;;;;;;26.73;9.63;;;;;;;;;;5092844;28;20229;-75
2021/01/11 05:40:36;;;;;;;29.23;10.17;;;;;;;;;;5098136;28;20217;-75
2021/01/11 05:43:41;;;;;;;37.67;11.10;;;;;;;;;;5103467;28;20319;-75
2021/01/11 05:46:46;;;;;;;44.73;11.43;;;;;;;;;;5094897;28;20201;-75
2021/01/11 05:49:54;;;;;;;30.40;9.90;;;;;;;;;;5099582;27;20208;-75
2021/01/11 05:53:00;;;;;;;26.80;8.80;;;;;;;;;;5102564;28;20196;-75
2021/01/11 05:56:05;;;;;;;32.63;10.30;;;;;;;;;;5084850;28;20252;-74
2021/01/11 05:59:10;;;;;;;28.60;10.03;;;;;;;;;;5102055;28;20299;-75
2021/01/11 06:02:16;;;;;;;30.53;10.83;;;;;;;;;;5113024;28;20237;-74
2021/01/11 06:05:21;;;;;;;32.50;8.47;;;;;;;;;;5117819;28;20335;-73
2021/01/11 06:08:27;;;;;;;32.20;10.57;;;;;;;;;;5089387;28;20217;-74
2021/01/11 06:11:32;;;;;;;24.00;9.10;;;;;;;;;;5100276;28;20370;-75
2021/01/11 06:14:38;;;;;;;25.93;9.53;;;;;;;;;;5088568;28;20209;-75
2021/01/11 06:17:43;;;;;;;23.30;7.70;;;;;;;;;;5107734;28;20197;-75
2021/01/11 06:20:49;;;;;;;25.50;10.00;;;;;;;;;;5087752;28;20197;-74
2021/01/11 06:24:13;;;;;;;28.17;9.63;;;;;;;;;;5101969;28;20207;-74
2021/01/11 06:27:18;;;;;;;31.00;9.80;;;;;;;;;;5086251;28;20212;-74
2021/01/11 06:30:33;;;;;;;24.03;8.67;;;;;;;;;;5084314;28;20201;-75
2021/01/11 06:33:39;;;;;;;24.27;8.27;;;;;;;;;;5096737;28;20193;-75
2021/01/11 06:36:44;;;;;;;23.90;9.23;;;;;;;;;;5081969;28;20204;-75
2021/01/11 06:39:49;;;;;;;26.67;8.47;;;;;;;;;;5088945;28;20209;-74
2021/01/11 06:42:58;;;;;;;26.77;9.47;;;;;;;;;;5108652;28;20237;-75
2021/01/11 06:46:02;;;;;;;27.33;9.27;;;;;;;;;;5094898;28;20186;-74
2021/01/11 06:49:09;;;;;;;31.37;9.97;;;;;;;;;;5096393;28;20560;-76
2021/01/11 06:52:15;;;;;;;23.67;8.77;;;;;;;;;;5094402;28;20589;-75
2021/01/11 06:55:21;;;;;;;32.13;10.37;;;;;;;;;;5087166;28;20719;-74
2021/01/11 06:58:27;;;;;;;25.30;9.30;;;;;;;;;;5081963;28;20209;-75
2021/01/11 07:01:36;;;;;;;33.17;9.93;;;;;;;;;;5095817;28;20240;-74
2021/01/11 07:04:41;;;;;;;24.83;9.47;;;;;;;;;;5087959;28;20189;-75
2021/01/11 07:07:46;;;;;;;27.00;9.23;;;;;;;;;;5094004;28;20205;-75
2021/01/11 07:11:04;;;;;;;67.87;12.07;;;;;;;;;;5089725;28;20591;-76
2021/01/11 07:14:10;;;;;;;26.83;10.00;;;;;;;;;;5088252;28;20899;-76
2021/01/11 07:17:33;;;;;;;33.07;10.57;;;;;;;;;;5085648;28;20251;-75
2021/01/11 07:20:42;;;;;;;23.00;7.33;;;;;;;;;;5089120;28;20217;-77
2021/01/11 07:23:47;;;;;;;25.37;8.60;;;;;;;;;;5091018;28;20232;-77
2021/01/11 07:26:52;;;;;;;28.40;9.50;;;;;;;;;;5103065;28;20224;-77
2021/01/11 07:29:58;;;;;;;36.53;11.87;;;;;;;;;;5086715;28;20287;-77
2021/01/11 07:33:11;;;;;;;30.20;9.43;;;;;;;;;;5084924;28;20225;-76
2021/01/11 07:36:20;;;;;;;29.20;10.53;;;;;;;;;;5085963;28;20232;-76
2021/01/11 07:39:25;;;;;;;35.47;11.80;;;;;;;;;;5089825;28;20276;-76
2021/01/11 07:42:30;;;;;;;29.63;8.93;;;;;;;;;;5084068;28;20252;-74
2021/01/11 07:45:35;;;;;;;25.83;9.10;;;;;;;;;;5097285;28;20208;-74
2021/01/11 07:48:40;;;;;;;28.73;9.83;;;;;;;;;;5083800;28;20572;-75
2021/01/11 07:51:45;;;;;;;27.83;10.47;;;;;;;;;;5086529;28;20238;-74
2021/01/11 07:54:56;;;;;;;26.37;9.20;;;;;;;;;;5094471;28;20253;-74
2021/01/11 07:58:01;;;;;;;27.03;9.67;;;;;;;;;;5100138;28;20254;-76
2021/01/11 08:01:15;;;;;;;29.93;8.67;;;;;;;;;;5092264;28;20603;-76
2021/01/11 08:04:21;;;;;;;26.73;9.03;;;;;;;;;;5107214;28;20242;-76
2021/01/11 08:07:29;;;;;;;28.03;8.23;;;;;;;;;;5109416;28;20205;-76
2021/01/11 08:10:34;;;;;;;28.37;8.80;;;;;;;;;;5098874;28;20297;-76
2021/01/11 08:13:39;;;;;;;29.23;9.27;;;;;;;;;;5097969;28;20270;-76
2021/01/11 08:16:49;;;;;;;23.67;7.03;;;;;;;;;;5080912;28;20334;-76
2021/01/11 08:19:56;;;;;;;30.17;9.63;;;;;;;;;;5087823;28;20200;-77
2021/01/11 08:23:07;;;;;;;28.70;10.03;;;;;;;;;;5099318;28;20274;-76
2021/01/11 08:26:12;;;;;;;19.70;8.13;;;;;;;;;;5097129;28;20209;-75
2021/01/11 08:29:17;;;;;;;34.27;9.77;;;;;;;;;;5088685;28;20244;-76
2021/01/11 08:32:23;;;;;;;29.03;10.10;;;;;;;;;;5097374;28;20224;-76
2021/01/11 08:35:29;;;;;;;26.37;8.27;;;;;;;;;;5098224;28;20213;-75
2021/01/11 08:38:54;;;;;;;28.23;7.90;;;;;;;;;;5100536;28;20287;-76
2021/01/11 08:41:59;;;;;;;23.47;8.03;;;;;;;;;;5093094;28;20260;-75
2021/01/11 08:45:22;;;;;;;25.13;9.60;;;;;;;;;;5083942;28;20270;-76
2021/01/11 08:48:31;;;;;;;22.93;8.40;;;;;;;;;;5097965;28;20684;-76
2021/01/11 08:51:37;;;;;;;21.00;7.17;;;;;;;;;;5099822;28;20653;-76
2021/01/11 08:54:42;;;;;;;25.00;8.60;;;;;;;;;;5100068;28;20722;-77
2021/01/11 08:57:56;;;;;;;26.00;10.03;;;;;;;;;;5099389;28;20664;-75
2021/01/11 09:01:10;;;;;;;23.90;9.17;;;;;;;;;;5098385;28;20311;-75
2021/01/11 09:04:29;;;;;;;22.70;8.00;;;;;;;;;;5086103;28;20210;-79
2021/01/11 09:07:35;;;;;;;28.50;9.67;;;;;;;;;;5093903;28;20738;-74
2021/01/11 09:10:43;;;;;;;25.13;8.20;;;;;;;;;;5088110;28;20216;-75
2021/01/11 09:13:48;;;;;;;26.13;9.23;;;;;;;;;;5105546;28;20192;-75
2021/01/11 09:16:56;;;;;;;23.70;8.70;;;;;;;;;;5106862;28;20274;-75
2021/01/11 09:20:02;;;;;;;23.37;9.40;;;;;;;;;;5099036;28;20689;-80
2021/01/11 09:23:08;;;;;;;22.27;8.20;;;;;;;;;;5090949;28;20213;-76
2021/01/11 09:26:13;;;;;;;23.93;10.13;;;;;;;;;;5087525;28;20224;-76
2021/01/11 09:29:17;;;;;;;22.60;9.40;;;;;;;;;;5087675;28;20306;-77
2021/01/11 09:32:21;;;;;;;27.60;9.27;;;;;;;;;;5085077;28;20218;-77
2021/01/11 09:35:27;;;;;;;26.53;8.90;;;;;;;;;;5089500;28;20209;-77
2021/01/11 09:38:32;;;;;;;27.37;10.93;;;;;;;;;;5088562;28;20213;-77
2021/01/11 09:41:41;;;;;;;27.97;9.23;;;;;;;;;;5087265;28;20736;-77
2021/01/11 09:44:46;;;;;;;26.17;9.60;;;;;;;;;;5083029;28;20233;-77
2021/01/11 09:47:50;;;;;;;24.27;9.80;;;;;;;;;;5085472;28;20731;-77
2021/01/11 09:50:55;;;;;;;26.30;9.83;;;;;;;;;;5088959;28;20247;-77
2021/01/11 09:54:00;;;;;;;26.23;9.97;;;;;;;;;;5095151;28;20200;-77
2021/01/11 09:57:05;;;;;;;28.57;11.13;;;;;;;;;;5100409;28;20270;-77
2021/01/11 10:00:10;;;;;;;26.03;10.33;;;;;;;;;;5111606;28;20209;-77
2021/01/11 10:03:16;;;;;;;28.30;9.20;;;;;;;;;;5107428;28;20209;-78
2021/01/11 10:06:20;;;;;;;28.53;11.03;;;;;;;;;;5083515;28;20284;-79
2021/01/11 10:09:26;;;;;;;26.40;9.90;;;;;;;;;;5097473;28;20251;-78
2021/01/11 10:12:32;;;;;;;25.03;9.83;;;;;;;;;;5112022;28;20220;-77
2021/01/11 10:15:36;;;;;;;26.17;9.97;;;;;;;;;;5085905;28;20666;-77
2021/01/11 10:18:41;;;;;;;27.93;10.60;;;;;;;;;;5081653;28;20740;-77
2021/01/11 10:21:46;;;;;;;31.23;10.50;;;;;;;;;;5081680;28;20221;-78
2021/01/11 10:24:53;;;;;;;26.57;8.57;;;;;;;;;;5096829;28;20221;-76
2021/01/11 10:27:57;;;;;;;25.70;9.60;;;;;;;;;;5100393;28;20276;-76
2021/01/11 10:31:02;;;;;;;29.40;9.60;;;;;;;;;;5087610;28;20286;-78
2021/01/11 10:34:06;;;;;;;35.93;10.83;;;;;;;;;;5110102;28;20638;-77
2021/01/11 10:37:11;;;;;;;23.97;10.13;;;;;;;;;;5114799;28;20292;-77
2021/01/11 10:40:17;;;;;;;30.77;10.73;;;;;;;;;;5101830;28;20209;-78
2021/01/11 10:43:23;;;;;;;32.00;11.87;;;;;;;;;;5125572;27;20229;-77
2021/01/11 10:46:27;;;;;;;37.00;11.27;;;;;;;;;;5100094;28;20579;-77
2021/01/11 10:49:33;;;;;;;27.90;10.60;;;;;;;;;;5094954;28;20225;-77
2021/01/11 10:52:39;;;;;;;31.87;11.43;;;;;;;;;;5102165;28;20231;-77
2021/01/11 10:55:45;;;;;;;29.47;10.43;;;;;;;;;;5136414;28;20284;-76
2021/01/11 10:58:50;;;;;;;32.10;11.50;;;;;;;;;;5132601;28;20212;-77
2021/01/11 11:01:55;;;;;;;33.83;11.17;;;;;;;;;;5111653;28;20221;-77
2021/01/11 11:05:01;;;;;;;34.33;12.03;;;;;;;;;;5115819;28;20295;-77
2021/01/11 11:08:06;;;;;;;33.73;11.73;;;;;;;;;;5099593;28;20259;-78
2021/01/11 11:11:12;;;;;;;34.13;11.57;;;;;;;;;;5099212;28;20240;-76
2021/01/11 11:14:17;;;;;;;31.43;11.33;;;;;;;;;;5112965;28;20628;-77
2021/01/11 11:17:23;;;;;;;28.87;10.63;;;;;;;;;;5091586;28;20244;-78
2021/01/11 11:20:28;;;;;;;34.50;12.93;;;;;;;;;;5091371;28;20361;-76
2021/01/11 11:23:35;;;;;;;33.33;12.43;;;;;;;;;;5101072;28;20240;-79
2021/01/11 11:26:41;;;;;;;60.43;18.50;;;;;;;;;;5112940;28;20583;-77
2021/01/11 11:29:51;;;;;;;32.83;13.20;;;;;;;;;;5084080;28;20274;-76
2021/01/11 11:32:55;;;;;;;28.43;11.13;;;;;;;;;;5098575;28;20221;-78
2021/01/11 11:36:25;;;;;;;35.33;12.90;;;;;;;;;;5084319;28;20620;-79
2021/01/11 11:39:30;;;;;;;37.03;14.10;;;;;;;;;;5088278;28;20625;-78
2021/01/11 11:42:36;;;;;;;37.93;13.90;;;;;;;;;;5102761;28;20263;-77
2021/01/11 11:45:42;;;;;;;45.57;15.37;;;;;;;;;;5097021;28;20197;-78
2021/01/11 11:48:54;;;;;;;28.70;11.47;;;;;;;;;;5094660;28;20247;-77
2021/01/11 11:51:59;;;;;;;32.57;13.67;;;;;;;;;;5091430;28;20266;-78
2021/01/11 11:55:04;;;;;;;31.77;13.13;;;;;;;;;;5088714;28;20193;-78
2021/01/11 11:58:10;;;;;;;34.30;13.20;;;;;;;;;;5091656;28;20568;-79
2021/01/11 12:01:15;;;;;;;41.23;14.00;;;;;;;;;;5099397;28;20220;-77
2021/01/11 12:04:20;;;;;;;39.80;14.17;;;;;;;;;;5110174;28;20246;-77
2021/01/11 12:07:27;;;;;;;39.50;13.87;;;;;;;;;;5114027;28;20213;-77
2021/01/11 12:10:32;;;;;;;39.07;14.33;;;;;;;;;;5124329;27;20193;-78
2021/01/11 12:13:37;;;;;;;32.63;13.83;;;;;;;;;;5124481;27;20201;-79
2021/01/11 12:16:41;;;;;;;39.00;14.03;;;;;;;;;;5112771;28;20189;-78
2021/01/11 12:19:46;;;;;;;42.10;13.53;;;;;;;;;;5122482;27;20193;-78
2021/01/11 12:22:50;;;;;;;39.70;13.57;;;;;;;;;;5092371;28;20278;-78
2021/01/11 12:25:56;;;;;;;34.27;12.90;;;;;;;;;;5080451;28;20260;-78
2021/01/11 12:29:02;;;;;;;30.07;11.67;;;;;;;;;;5080132;28;20194;-79
2021/01/11 12:32:07;;;;;;;35.80;13.53;;;;;;;;;;5079559;28;20653;-78
2021/01/11 12:35:11;;;;;;;35.03;14.03;;;;;;;;;;5079949;28;20311;-78
2021/01/11 12:38:16;;;;;;;44.73;14.23;;;;;;;;;;5079799;28;20189;-79
2021/01/11 12:41:21;;;;;;;35.37;14.60;;;;;;;;;;5080251;28;20221;-79
2021/01/11 12:44:26;;;;;;;33.97;12.77;;;;;;;;;;5080762;28;20289;-79
2021/01/11 12:47:36;;;;;;;40.13;14.83;;;;;;;;;;5080976;28;20731;-78
2021/01/11 12:50:41;;;;;;;25.17;10.20;;;;;;;;;;5081222;28;20201;-77
2021/01/11 12:53:49;;;;;;;24.90;9.50;;;;;;;;;;5090515;28;20182;-77
2021/01/11 12:56:54;;;;;;;31.80;12.97;;;;;;;;;;5107530;28;20203;-77
2021/01/11 13:00:02;;;;;;;36.03;14.10;;;;;;;;;;5114878;28;20259;-76
2021/01/11 13:03:07;;;;;;;41.03;18.00;;;;;;;;;;5111497;28;20446;-77
2021/01/11 13:06:21;;;;;;;38.20;15.63;;;;;;;;;;5085657;28;20455;-75
2021/01/11 13:09:26;;;;;;;33.10;13.57;;;;;;;;;;5112210;28;20290;-76
2021/01/11 13:12:34;;;;;;;26.13;8.70;;;;;;;;;;5100375;28;20662;-78
2021/01/11 13:15:40;;;;;;;31.63;12.37;;;;;;;;;;5101450;28;20189;-77
2021/01/11 13:18:45;;;;;;;33.37;12.50;;;;;;;;;;5080522;28;20233;-78
2021/01/11 13:21:49;;;;;;;42.23;14.60;;;;;;;;;;5090585;28;20251;-78
2021/01/11 13:24:54;;;;;;;32.70;12.67;;;;;;;;;;5092092;28;20205;-78
2021/01/11 13:27:59;;;;;;;37.00;13.33;;;;;;;;;;5095368;28;20589;-79
2021/01/11 13:31:06;;;;;;;45.50;17.20;;;;;;;;;;5104397;28;20308;-78
2021/01/11 13:34:11;;;;;;;42.50;16.07;;;;;;;;;;5113956;28;20565;-79
2021/01/11 13:37:17;;;;;;;34.63;13.67;;;;;;;;;;5103709;28;20703;-78
2021/01/11 13:40:21;;;;;;;35.50;12.70;;;;;;;;;;5103214;28;20707;-78
2021/01/11 13:43:26;;;;;;;30.63;11.70;;;;;;;;;;5102840;28;20586;-78
2021/01/11 13:46:32;;;;;;;35.10;11.53;;;;;;;;;;5094652;28;20221;-78
2021/01/11 13:49:37;;;;;;;34.83;13.30;;;;;;;;;;5096514;28;20255;-78
2021/01/11 13:52:41;;;;;;;38.83;15.97;;;;;;;;;;5097812;28;20700;-78
2021/01/11 13:55:46;;;;;;;37.70;14.83;;;;;;;;;;5111208;28;20189;-79
2021/01/11 13:58:53;;;;;;;52.17;15.83;;;;;;;;;;5105746;28;20216;-78
2021/01/11 14:02:00;;;;;;;34.83;14.73;;;;;;;;;;5106357;28;20240;-78
2021/01/11 14:05:05;;;;;;;41.87;15.80;;;;;;;;;;5119962;28;20200;-78
2021/01/11 14:08:09;;;;;;;36.27;15.07;;;;;;;;;;5103483;28;20212;-79
2021/01/11 14:11:19;;;;;;;44.93;15.50;;;;;;;;;;5098898;28;20216;-78
2021/01/11 14:14:23;;;;;;;41.07;15.90;;;;;;;;;;5115062;28;20188;-77
2021/01/11 14:17:29;;;;;;;44.93;16.70;;;;;;;;;;5102023;28;20240;-77
2021/01/11 14:20:34;;;;;;;47.23;16.87;;;;;;;;;;5098177;28;20208;-76
2021/01/11 14:23:39;;;;;;;38.90;15.23;;;;;;;;;;5096453;28;20232;-77
2021/01/11 14:26:44;;;;;;;37.83;14.50;;;;;;;;;;5102153;28;20197;-76
2021/01/11 14:29:49;;;;;;;38.43;15.77;;;;;;;;;;5101553;28;20209;-77
2021/01/11 14:32:54;;;;;;;41.60;15.77;;;;;;;;;;5107874;27;20263;-76
2021/01/11 14:35:59;;;;;;;37.53;15.17;;;;;;;;;;5102680;28;20237;-77
2021/01/11 14:39:04;;;;;;;36.20;14.00;;;;;;;;;;5114450;28;20469;-77
2021/01/11 14:42:10;;;;;;;36.23;15.00;;;;;;;;;;5095844;28;20704;-77
2021/01/11 14:45:15;;;;;;;33.33;13.53;;;;;;;;;;5097273;28;20246;-76
2021/01/11 14:48:20;;;;;;;53.37;23.13;;;;;;;;;;5096483;28;20285;-77
2021/01/11 14:51:24;;;;;;;39.13;15.50;;;;;;;;;;5095126;27;20716;-76
2021/01/11 14:54:29;;;;;;;47.10;18.17;;;;;;;;;;5101997;28;20209;-76
2021/01/11 14:57:34;;;;;;;41.00;16.20;;;;;;;;;;5111694;28;20208;-76
2021/01/11 15:00:38;;;;;;;36.87;13.73;;;;;;;;;;5100860;28;20682;-76
2021/01/11 15:03:44;;;;;;;38.57;14.20;;;;;;;;;;5080775;28;20267;-76
2021/01/11 15:06:49;;;;;;;38.03;14.87;;;;;;;;;;5081664;28;20196;-77
2021/01/11 15:09:54;;;;;;;39.87;15.47;;;;;;;;;;5097472;28;20258;-77
2021/01/11 15:12:58;;;;;;;40.37;14.40;;;;;;;;;;5101324;28;20319;-77
2021/01/11 15:16:03;;;;;;;46.23;17.07;;;;;;;;;;5098958;28;20962;-76
2021/01/11 15:19:08;;;;;;;38.33;15.37;;;;;;;;;;5102772;28;20718;-77
2021/01/11 15:22:13;;;;;;;42.83;17.13;;;;;;;;;;5103435;28;20282;-77
2021/01/11 15:25:18;;;;;;;54.70;20.47;;;;;;;;;;5094334;28;20653;-78
2021/01/11 15:28:23;;;;;;;48.50;17.93;;;;;;;;;;5092785;28;20628;-77
2021/01/11 15:31:28;;;;;;;44.60;19.63;;;;;;;;;;5100368;28;20229;-78
2021/01/11 15:34:34;;;;;;;56.73;23.47;;;;;;;;;;5100133;28;20189;-78
2021/01/11 15:37:39;;;;;;;46.20;18.13;;;;;;;;;;5100736;28;20628;-78
2021/01/11 15:40:43;;;;;;;39.27;15.23;;;;;;;;;;5113357;28;20205;-78
2021/01/11 15:43:48;;;;;;;43.43;17.33;;;;;;;;;;5096489;28;20724;-78
2021/01/11 15:46:52;;;;;;;58.87;21.90;;;;;;;;;;5096078;28;20193;-78
2021/01/11 15:49:58;;;;;;;42.33;16.80;;;;;;;;;;5100957;28;20205;-77
2021/01/11 15:53:03;;;;;;;37.37;15.63;;;;;;;;;;5100707;28;20630;-77
2021/01/11 15:56:07;;;;;;;48.63;19.70;;;;;;;;;;5093654;28;20258;-78
2021/01/11 15:59:12;;;;;;;40.77;16.43;;;;;;;;;;5100216;28;20247;-78
2021/01/11 16:02:17;;;;;;;52.43;18.13;;;;;;;;;;5079837;28;20659;-78
2021/01/11 16:05:22;;;;;;;41.33;16.47;;;;;;;;;;5079999;28;20213;-78
2021/01/11 16:08:29;;;;;;;41.97;17.10;;;;;;;;;;5090987;28;20204;-78
2021/01/11 16:11:34;;;;;;;45.97;18.13;;;;;;;;;;5100562;28;20236;-78
2021/01/11 16:14:39;;;;;;;47.33;17.47;;;;;;;;;;5090976;28;20230;-78
2021/01/11 16:17:46;;;;;;;45.03;18.30;;;;;;;;;;5095282;28;20220;-79
2021/01/11 16:20:51;;;;;;;52.27;19.27;;;;;;;;;;5099947;28;20303;-78
2021/01/11 16:23:56;;;;;;;48.83;16.77;;;;;;;;;;5079782;28;20209;-78
2021/01/11 16:27:01;;;;;;;44.53;17.50;;;;;;;;;;5094549;28;20258;-78
2021/01/11 16:30:06;;;;;;;45.33;17.70;;;;;;;;;;5104036;27;20253;-78
2021/01/11 16:33:11;;;;;;;50.17;19.33;;;;;;;;;;5099685;28;20197;-76
2021/01/11 16:36:16;;;;;;;44.87;18.20;;;;;;;;;;5098014;28;20216;-78
2021/01/11 16:39:21;;;;;;;43.40;17.10;;;;;;;;;;5099124;28;20330;-78
2021/01/11 16:42:25;;;;;;;54.20;22.47;;;;;;;;;;5098781;28;20765;-78
2021/01/11 16:45:30;;;;;;;48.73;18.90;;;;;;;;;;5097129;28;20243;-77
2021/01/11 16:48:35;;;;;;;46.37;17.73;;;;;;;;;;5095446;28;20200;-77
2021/01/11 16:51:43;;;;;;;42.53;17.53;;;;;;;;;;5092201;28;20318;-78
2021/01/11 16:54:47;;;;;;;43.00;16.50;;;;;;;;;;5096564;28;20574;-76
2021/01/11 16:57:52;;;;;;;44.77;17.87;;;;;;;;;;5100085;28;20209;-77
2021/01/11 17:00:57;;;;;;;49.27;18.23;;;;;;;;;;5092953;28;20269;-78
2021/01/11 17:04:02;;;;;;;45.40;17.87;;;;;;;;;;5096723;28;20224;-78
2021/01/11 17:07:07;;;;;;;54.63;19.30;;;;;;;;;;5102501;28;20293;-78
2021/01/11 17:10:12;;;;;;;50.87;20.50;;;;;;;;;;5093718;28;20243;-78
2021/01/11 17:13:16;;;;;;;51.53;18.63;;;;;;;;;;5097064;28;20317;-78
2021/01/11 17:16:21;;;;;;;52.97;19.67;;;;;;;;;;5101859;28;20212;-77
2021/01/11 17:19:26;;;;;;;46.40;18.13;;;;;;;;;;5082727;28;20247;-77
2021/01/11 17:22:31;;;;;;;49.07;18.20;;;;;;;;;;5094495;28;20231;-78
2021/01/11 17:25:36;;;;;;;51.47;18.27;;;;;;;;;;5107069;28;20696;-77
2021/01/11 17:28:40;;;;;;;44.10;18.33;;;;;;;;;;5102592;28;20895;-78
2021/01/11 17:31:45;;;;;;;51.73;19.47;;;;;;;;;;5116264;28;20236;-76
2021/01/11 17:34:50;;;;;;;47.73;18.70;;;;;;;;;;5083218;28;20646;-76
2021/01/11 17:37:56;;;;;;;47.57;19.37;;;;;;;;;;5089650;28;20201;-79
2021/01/11 17:41:00;;;;;;;47.17;18.60;;;;;;;;;;5082566;28;20271;-77
2021/01/11 17:44:05;;;;;;;51.20;19.80;;;;;;;;;;5099837;28;20232;-78
2021/01/11 17:47:10;;;;;;;47.93;18.30;;;;;;;;;;5109120;28;20215;-76
2021/01/11 17:50:15;;;;;;;47.83;17.60;;;;;;;;;;5090110;28;20209;-77
2021/01/11 17:53:21;;;;;;;50.67;19.87;;;;;;;;;;5096034;28;20197;-77
2021/01/11 17:56:26;;;;;;;55.50;19.73;;;;;;;;;;5091333;28;20205;-77
2021/01/11 17:59:33;;;;;;;50.53;20.13;;;;;;;;;;5094105;28;20209;-78
2021/01/11 18:02:38;;;;;;;51.63;18.70;;;;;;;;;;5088107;28;20303;-77
2021/01/11 18:05:43;;;;;;;52.90;18.37;;;;;;;;;;5090811;28;20249;-78
2021/01/11 18:08:50;;;;;;;48.53;18.80;;;;;;;;;;5101714;28;20200;-77